Time;durP1;ratioP1;P1;durP2;ratioP2;P2;SDS_P1;SDS_P2;PMS_P1;PMS_P2;Temp;Humidity;BMP_temperature;BMP_pressure;BME280_temperature;BME280_humidity;BME280_pressure;Samples;Min_cycle;Max_cycle;Signal;HPM_P1;HPM_P2
2021/05/20 00:00:31;;;;;;;12.37;5.15;;;;;;;9.73;67.69;100688.66;1674388;83;25738;-62
2021/05/20 00:03:00;;;;;;;8.45;4.83;;;;;;;9.68;67.78;100687.50;1661033;84;25629;-62
2021/05/20 00:05:31;;;;;;;7.37;4.40;;;;;;;9.63;67.78;100693.97;1620686;85;25799;-62
2021/05/20 00:08:00;;;;;;;11.15;4.65;;;;;;;9.59;67.96;100693.67;1643603;84;25835;-62
2021/05/20 00:10:31;;;;;;;9.15;5.05;;;;;;;9.56;67.97;100693.33;1678531;83;25783;-62
2021/05/20 00:13:02;;;;;;;6.85;4.47;;;;;;;9.53;68.05;100693.45;1672390;84;26072;-62
2021/05/20 00:15:31;;;;;;;10.18;4.35;;;;;;;9.51;68.14;100699.78;1677562;84;25813;-62
2021/05/20 00:18:00;;;;;;;7.65;4.10;;;;;;;9.48;68.17;100702.58;1688621;83;25772;-62
2021/05/20 00:20:27;;;;;;;7.47;4.85;;;;;;;9.46;68.22;100709.79;1655074;85;25928;-62
2021/05/20 00:22:56;;;;;;;9.18;5.08;;;;;;;9.41;68.22;100708.16;1656108;85;25981;-62
2021/05/20 00:25:26;;;;;;;10.05;5.10;;;;;;;9.39;68.25;100707.34;1676048;83;25900;-62
2021/05/20 00:27:55;;;;;;;8.90;4.97;;;;;;;9.36;68.27;100707.92;1649344;84;25715;-62
2021/05/20 00:30:24;;;;;;;6.85;4.25;;;;;;;9.33;68.34;100710.71;1689360;82;26364;-62
2021/05/20 00:32:53;;;;;;;13.55;5.67;;;;;;;9.30;68.32;100715.71;1674673;83;25701;-62
2021/05/20 00:35:24;;;;;;;7.92;5.37;;;;;;;9.28;68.36;100713.56;1695588;82;25882;-62
2021/05/20 00:37:53;;;;;;;12.80;5.17;;;;;;;9.26;68.41;100711.41;1692952;82;26271;-62
2021/05/20 00:40:24;;;;;;;10.65;5.20;;;;;;;9.26;68.43;100716.75;1699664;82;25635;-62
2021/05/20 00:42:53;;;;;;;7.65;5.00;;;;;;;9.24;68.43;100719.08;1637520;85;26897;-62
2021/05/20 00:45:24;;;;;;;8.98;5.28;;;;;;;9.20;68.41;100722.33;1666779;84;25812;-62
2021/05/20 00:47:53;;;;;;;9.50;5.53;;;;;;;9.16;68.40;100714.47;1644762;85;34922;-62
2021/05/20 00:50:25;;;;;;;8.03;5.40;;;;;;;9.13;68.48;100713.24;1673987;83;25852;-62
2021/05/20 00:52:53;;;;;;;9.60;6.25;;;;;;;9.10;68.53;100719.58;1651752;84;33645;-62
2021/05/20 00:55:24;;;;;;;10.55;5.50;;;;;;;9.09;68.54;100717.83;1633077;84;26167;-62
2021/05/20 00:57:54;;;;;;;9.78;5.58;;;;;;;9.07;68.56;100725.03;1636463;85;25597;-62
2021/05/20 01:00:25;;;;;;;12.25;5.87;;;;;;;9.04;68.54;100723.80;1657356;84;25721;-62
2021/05/20 01:02:56;;;;;;;10.43;6.35;;;;;;;9.01;68.49;100726.59;1667415;83;25667;-62
2021/05/20 01:05:24;;;;;;;10.25;5.65;;;;;;;8.96;68.62;100727.22;1641519;84;25799;-62
2021/05/20 01:07:52;;;;;;;11.45;5.97;;;;;;;8.93;68.60;100727.33;1630478;85;25981;-62
2021/05/20 01:10:22;;;;;;;11.12;6.25;;;;;;;8.88;68.65;100726.61;1639318;85;25841;-62
2021/05/20 01:12:53;;;;;;;14.40;6.97;;;;;;;8.85;68.66;100728.05;1653385;84;25665;-62
2021/05/20 01:15:29;;;;;;;;;;;;;;;8.79;68.76;100726.01;1643564;84;25760;-62
2021/05/20 01:18:06;;;;;;;11.53;6.20;;;;;;;8.74;68.80;100730.64;1636405;86;25695;-62
2021/05/20 01:20:41;;;;;;;12.30;6.53;;;;;;;8.72;68.90;100725.81;1608569;86;27503;-62
2021/05/20 01:23:17;;;;;;;11.35;6.85;;;;;;;8.71;68.92;100727.20;1625329;86;25819;-62
2021/05/20 01:25:49;;;;;;;14.85;6.83;;;;;;;8.69;68.92;100723.70;1623076;85;25637;-62
2021/05/20 01:28:22;;;;;;;13.60;7.47;;;;;;;8.67;68.95;100730.44;1649297;85;25612;-62
2021/05/20 01:30:54;;;;;;;10.68;6.42;;;;;;;8.64;68.99;100735.88;1658164;84;25967;-62
2021/05/20 01:33:22;;;;;;;;;;;;;;;8.61;69.07;100729.31;1645666;84;27337;-62
2021/05/20 01:35:52;;;;;;;14.38;6.78;;;;;;;8.58;69.18;100732.08;1640314;85;25733;-62
2021/05/20 01:41:01;;;;;;;11.03;6.65;;;;;;;8.52;69.11;100732.29;1638636;84;25707;-62
2021/05/20 01:43:33;;;;;;;13.93;7.35;;;;;;;8.52;69.15;100732.75;1658463;83;25929;-62
2021/05/20 01:46:05;;;;;;;10.53;7.15;;;;;;;8.49;69.11;100724.84;1655501;83;26478;-62
2021/05/20 01:48:41;;;;;;;20.02;7.42;;;;;;;8.46;69.22;100729.36;1670221;83;25855;-62
2021/05/20 01:51:23;;;;;;;18.48;6.97;;;;;;;8.43;69.25;100721.45;1696283;82;25590;-62
2021/05/20 01:53:56;;;;;;;12.65;6.42;;;;;;;8.41;69.27;100725.09;1680727;83;25640;-62
2021/05/20 01:56:26;;;;;;;14.47;6.85;;;;;;;8.37;69.29;100728.33;1695086;82;25715;-62
2021/05/20 01:58:56;;;;;;;22.22;7.62;;;;;;;8.35;69.39;100730.64;1712603;81;26420;-62
2021/05/20 02:01:27;;;;;;;10.13;6.50;;;;;;;8.33;69.45;100723.14;1685103;82;25575;-62
2021/05/20 02:03:56;;;;;;;11.20;6.58;;;;;;;8.32;69.49;100734.71;1688206;82;33029;-62
2021/05/20 02:06:26;;;;;;;12.35;6.80;;;;;;;8.29;69.52;100733.48;1646979;84;25813;-62
2021/05/20 02:08:56;;;;;;;12.35;6.30;;;;;;;8.26;69.58;100730.44;1649914;85;25577;-62
2021/05/20 02:11:26;;;;;;;9.05;6.03;;;;;;;8.25;69.60;100731.36;1678618;83;26097;-62
2021/05/20 02:13:54;;;;;;;13.70;7.12;;;;;;;8.29;69.64;100736.14;1668416;84;25665;-62
2021/05/20 02:16:22;;;;;;;10.25;6.15;;;;;;;8.28;69.67;100737.95;1673199;83;25658;-62
2021/05/20 02:18:50;;;;;;;13.50;7.10;;;;;;;8.28;69.63;100736.61;1665159;84;26241;-62
2021/05/20 02:21:22;;;;;;;10.85;5.95;;;;;;;8.27;69.75;100735.33;1689020;82;25570;-62
2021/05/20 02:23:53;;;;;;;10.98;6.42;;;;;;;8.26;69.73;100735.78;1646895;84;30528;-62
2021/05/20 02:26:23;;;;;;;10.18;6.42;;;;;;;8.26;69.78;100740.25;1680665;83;28439;-62
2021/05/20 02:28:54;;;;;;;9.28;6.03;;;;;;;8.24;69.85;100740.77;1680577;83;25643;-62
2021/05/20 02:31:25;;;;;;;15.95;7.10;;;;;;;8.21;69.85;100738.19;1697782;82;25699;-62
2021/05/20 02:33:57;;;;;;;;;;;;;;;8.17;69.93;100731.20;1662937;84;25728;-62
2021/05/20 02:36:33;;;;;;;9.48;5.83;;;;;;;8.14;70.06;100734.38;1667914;84;25750;-62
2021/05/20 02:39:04;;;;;;;11.53;6.33;;;;;;;8.12;70.04;100738.02;1690346;83;25744;-62
2021/05/20 02:41:36;;;;;;;16.40;8.05;;;;;;;8.09;70.05;100738.99;1665048;84;25787;-62
2021/05/20 02:44:09;;;;;;;15.50;7.12;;;;;;;8.06;70.05;100738.22;1664551;83;25758;-62
2021/05/20 02:46:38;;;;;;;15.80;8.40;;;;;;;8.02;70.11;100738.77;1656758;84;25720;-62
2021/05/20 02:49:06;;;;;;;12.98;7.10;;;;;;;7.99;70.17;100738.87;1666926;83;26123;-62
2021/05/20 02:51:35;;;;;;;12.33;7.53;;;;;;;7.96;70.14;100737.63;1661582;84;25746;-62
2021/05/20 02:54:12;;;;;;;13.28;7.10;;;;;;;7.93;70.19;100739.06;1665644;83;25811;-62
2021/05/20 02:56:44;;;;;;;11.40;7.00;;;;;;;7.92;70.20;100738.64;1674077;84;25596;-62
2021/05/20 02:59:13;;;;;;;12.20;7.30;;;;;;;7.87;70.21;100736.58;1649630;83;25597;-62
2021/05/20 03:01:45;;;;;;;14.23;6.97;;;;;;;7.89;70.32;100744.54;1673980;83;27307;-62
2021/05/20 03:04:14;;;;;;;9.08;6.83;;;;;;;7.88;70.39;100739.66;1654975;83;25733;-62
2021/05/20 03:06:43;;;;;;;13.03;7.42;;;;;;;7.88;70.41;100736.12;1675813;83;25824;-62
2021/05/20 03:09:13;;;;;;;12.00;8.05;;;;;;;7.88;70.51;100738.33;1661410;83;25850;-62
2021/05/20 03:11:44;;;;;;;12.45;7.95;;;;;;;7.87;70.53;100737.91;1664480;84;25776;-62
2021/05/20 03:14:13;;;;;;;11.33;7.42;;;;;;;7.86;70.56;100740.17;1670570;83;27572;-62
2021/05/20 03:16:43;;;;;;;17.32;7.90;;;;;;;7.87;70.61;100743.71;1668660;84;25645;-62
2021/05/20 03:19:12;;;;;;;13.80;8.20;;;;;;;7.88;70.62;100745.46;1697141;82;26105;-62
2021/05/20 03:21:43;;;;;;;13.75;8.43;;;;;;;7.89;70.70;100750.75;1684110;83;25715;-62
2021/05/20 03:24:14;;;;;;;15.83;8.80;;;;;;;7.90;70.70;100748.95;1671876;83;28746;-61
2021/05/20 03:26:43;;;;;;;18.12;8.63;;;;;;;7.90;70.73;100757.84;1670902;84;27321;-61
2021/05/20 03:29:12;;;;;;;13.13;7.83;;;;;;;7.91;70.76;100752.91;1693823;82;26059;-61
2021/05/20 03:31:42;;;;;;;17.35;7.87;;;;;;;7.91;70.79;100759.58;1676130;84;25836;-62
2021/05/20 03:34:11;;;;;;;16.75;8.53;;;;;;;7.93;70.85;100754.20;1677699;82;26183;-62
2021/05/20 03:36:42;;;;;;;19.45;7.95;;;;;;;7.95;70.95;100760.36;1668056;83;27736;-62
2021/05/20 03:39:12;;;;;;;12.25;7.70;;;;;;;8.00;70.99;100755.30;1667232;83;27931;-61
2021/05/20 03:41:42;;;;;;;13.68;7.72;;;;;;;8.06;71.02;100759.57;1663551;84;25666;-62
2021/05/20 03:44:12;;;;;;;12.58;8.35;;;;;;;8.09;71.00;100756.81;1671058;83;25782;-62
2021/05/20 03:46:41;;;;;;;13.25;7.87;;;;;;;8.10;70.96;100757.22;1651975;84;26061;-62
2021/05/20 03:49:09;;;;;;;12.18;6.92;;;;;;;8.11;71.05;100755.84;1661002;83;25827;-62
2021/05/20 03:51:38;;;;;;;16.30;7.22;;;;;;;8.12;71.11;100757.58;1664046;84;25823;-62
2021/05/20 03:54:07;;;;;;;12.20;7.75;;;;;;;8.14;71.13;100759.74;1671819;83;25866;-62
2021/05/20 03:56:38;;;;;;;16.75;8.08;;;;;;;8.14;71.17;100758.41;1685629;83;25679;-62
2021/05/20 03:59:07;;;;;;;13.60;8.20;;;;;;;8.17;71.36;100751.22;1683802;83;25777;-62
2021/05/20 04:01:39;;;;;;;14.60;8.05;;;;;;;8.17;71.36;100751.22;1692489;82;25713;-62
2021/05/20 04:04:11;;;;;;;13.20;7.90;;;;;;;8.19;71.29;100757.39;1694587;83;27384;-62
2021/05/20 04:06:40;;;;;;;16.55;8.10;;;;;;;8.20;71.32;100751.12;1675138;83;25597;-62
2021/05/20 04:09:09;;;;;;;18.25;8.18;;;;;;;8.22;71.35;100751.95;1626109;84;25798;-62
2021/05/20 04:11:41;;;;;;;13.80;8.47;;;;;;;8.23;71.35;100753.70;1677346;83;25919;-62
2021/05/20 04:14:12;;;;;;;22.10;9.13;;;;;;;8.25;71.36;100760.73;1663426;82;25815;-62
2021/05/20 04:16:43;;;;;;;21.35;9.28;;;;;;;8.26;71.32;100764.28;1692281;83;27377;-62
2021/05/20 04:19:13;;;;;;;15.32;9.05;;;;;;;8.27;71.34;100770.91;1699097;82;26063;-62
2021/05/20 04:21:44;;;;;;;14.35;9.40;;;;;;;8.29;71.39;100773.07;1641992;84;25778;-62
2021/05/20 04:24:15;;;;;;;20.70;10.08;;;;;;;8.33;71.44;100777.89;1654932;84;25822;-62
2021/05/20 04:26:44;;;;;;;11.78;7.72;;;;;;;8.37;71.49;100775.53;1642338;84;25845;-62
2021/05/20 04:29:13;;;;;;;12.15;8.03;;;;;;;8.42;71.53;100777.59;1628881;86;25843;-62
2021/05/20 04:31:41;;;;;;;18.45;9.03;;;;;;;8.48;71.57;100776.52;1615827;86;25747;-61
2021/05/20 04:34:10;;;;;;;15.58;8.63;;;;;;;8.54;71.59;100776.31;1621145;84;25633;-62
2021/05/20 04:36:41;;;;;;;12.37;7.67;;;;;;;8.60;71.61;100781.46;1646132;83;25337;-62
2021/05/20 04:39:10;;;;;;;16.32;7.92;;;;;;;8.64;71.63;100783.98;1631492;85;25704;-62
2021/05/20 04:41:39;;;;;;;12.10;7.37;;;;;;;8.70;71.62;100788.25;1627922;85;26386;-62
2021/05/20 04:44:08;;;;;;;15.48;8.45;;;;;;;8.75;71.60;100787.17;1644191;84;25879;-62
2021/05/20 04:46:38;;;;;;;13.68;7.55;;;;;;;8.82;71.64;100782.48;1662742;83;25848;-62
2021/05/20 04:49:11;;;;;;;14.65;7.10;;;;;;;8.89;71.62;100781.82;1694078;83;25597;-62
2021/05/20 04:51:37;;;;;;;16.20;8.30;;;;;;;8.96;71.60;100779.34;1672747;83;25817;-62
2021/05/20 04:54:09;;;;;;;11.22;7.40;;;;;;;9.03;71.61;100779.08;1649320;85;26044;-62
2021/05/20 04:56:42;;;;;;;21.07;7.53;;;;;;;9.11;71.57;100774.80;1648303;84;26213;-62
2021/05/20 04:59:11;;;;;;;18.12;7.15;;;;;;;9.20;71.57;100777.16;1640071;84;25665;-62
2021/05/20 05:01:41;;;;;;;13.45;6.37;;;;;;;9.27;71.50;100780.48;1658504;84;26160;-62
2021/05/20 05:04:10;;;;;;;10.95;6.10;;;;;;;9.33;71.49;100778.45;1671615;83;25931;-62
2021/05/20 05:06:38;;;;;;;10.72;6.50;;;;;;;9.40;71.44;100777.31;1672513;84;25799;-62
2021/05/20 05:09:06;;;;;;;20.72;8.28;;;;;;;9.48;71.41;100777.49;1669107;83;25945;-62
2021/05/20 05:11:35;;;;;;;18.52;8.98;;;;;;;9.57;71.38;100784.72;1698124;82;26053;-62
2021/05/20 05:14:05;;;;;;;10.13;7.33;;;;;;;9.65;71.39;100777.28;1697014;82;25628;-62
2021/05/20 05:16:35;;;;;;;14.87;6.95;;;;;;;9.74;71.33;100778.27;1675009;84;25608;-62
2021/05/20 05:19:04;;;;;;;10.38;6.45;;;;;;;9.82;71.27;100777.98;1695884;82;25826;-62
2021/05/20 05:21:37;;;;;;;16.52;6.47;;;;;;;9.89;71.20;100781.30;1671911;84;25732;-62
2021/05/20 05:24:09;;;;;;;13.75;6.10;;;;;;;9.95;71.17;100784.61;1672764;83;25700;-63
2021/05/20 05:26:41;;;;;;;16.48;6.97;;;;;;;10.02;71.14;100788.80;1689659;82;25759;-62
2021/05/20 05:29:12;;;;;;;14.05;5.78;;;;;;;10.10;71.12;100789.84;1695856;82;26013;-62
2021/05/20 05:31:44;;;;;;;8.73;5.42;;;;;;;10.19;71.13;100792.16;1700170;82;28245;-62
2021/05/20 05:34:12;;;;;;;6.67;5.05;;;;;;;10.35;71.11;100796.47;1624379;85;25745;-62
2021/05/20 05:36:42;;;;;;;11.18;6.35;;;;;;;10.47;70.92;100803.11;1661559;84;25992;-62
2021/05/20 05:39:11;;;;;;;15.38;6.20;;;;;;;10.55;70.85;100791.62;1676007;83;25703;-62
2021/05/20 05:41:41;;;;;;;10.28;5.30;;;;;;;10.62;70.77;100791.30;1697519;82;25704;-62
2021/05/20 05:44:12;;;;;;;10.48;5.10;;;;;;;10.70;70.62;100800.37;1691906;82;25685;-62
2021/05/20 05:46:43;;;;;;;15.40;4.85;;;;;;;10.76;70.51;100798.78;1675139;83;25909;-62
2021/05/20 05:49:28;;;;;;;;;;;;;;;;;;;;;
2021/05/20 05:51:55;;;;;;;10.90;6.10;;;;;;;10.87;70.29;100790.28;1671409;83;25587;-62
2021/05/20 05:54:25;;;;;;;9.80;5.03;;;;;;;10.94;70.26;100793.11;1673285;83;25630;-62
2021/05/20 05:56:54;;;;;;;;;;;;;;;11.03;70.16;100788.22;1673994;84;28035;-63
2021/05/20 05:59:23;;;;;;;10.95;5.72;;;;;;;11.05;69.97;100783.67;1663126;83;25646;-61
2021/05/20 06:01:52;;;;;;;13.60;5.78;;;;;;;11.15;69.94;100796.21;1666261;83;25653;-63
2021/05/20 06:04:22;;;;;;;13.45;5.22;;;;;;;11.22;69.82;100797.69;1729170;81;26745;-61
2021/05/20 06:06:52;;;;;;;12.60;4.75;;;;;;;11.31;69.83;100797.77;1706817;81;25743;-63
2021/05/20 06:09:22;;;;;;;12.93;6.45;;;;;;;11.43;69.73;100801.24;1700647;82;27212;-62
2021/05/20 06:11:54;;;;;;;8.73;4.92;;;;;;;11.53;69.80;100785.13;1709333;81;25731;-63
2021/05/20 06:14:23;;;;;;;14.87;5.35;;;;;;;11.53;69.80;100785.13;1678235;83;25808;-63
2021/05/20 06:16:53;;;;;;;8.70;5.08;;;;;;;11.72;69.34;100799.94;1686746;82;26158;-60
2021/05/20 06:19:22;;;;;;;8.65;4.40;;;;;;;11.82;69.24;100805.80;1692964;82;25304;-62
2021/05/20 06:21:53;;;;;;;4.83;3.95;;;;;;;11.87;69.02;100801.95;1716970;81;25920;-62
2021/05/20 06:24:22;;;;;;;8.63;4.78;;;;;;;11.94;68.96;100806.57;1675487;82;25811;-62
2021/05/20 06:26:52;;;;;;;7.77;4.10;;;;;;;12.05;68.80;100808.76;1694862;82;25838;-62
2021/05/20 06:29:20;;;;;;;6.87;3.92;;;;;;;12.09;68.60;100807.67;1699505;82;25795;-61
2021/05/20 06:31:57;;;;;;;4.40;3.47;;;;;;;12.14;68.37;100809.67;1700481;82;25940;-63
2021/05/20 06:34:28;;;;;;;6.25;4.12;;;;;;;12.18;68.23;100816.64;1662449;83;26611;-64
2021/05/20 06:36:59;;;;;;;5.60;3.70;;;;;;;12.26;67.98;100819.37;1697656;82;25667;-62
2021/05/20 06:39:28;;;;;;;10.80;3.90;;;;;;;12.35;67.88;100814.02;1684491;83;25893;-61
2021/05/20 06:41:57;;;;;;;8.98;4.22;;;;;;;12.48;67.69;100820.55;1693994;82;25816;-61
2021/05/20 06:44:30;;;;;;;5.47;3.58;;;;;;;12.68;67.41;100823.14;1673215;84;25804;-62
2021/05/20 06:47:00;;;;;;;5.92;3.30;;;;;;;12.87;67.13;100818.20;1676904;82;26082;-68
2021/05/20 06:49:30;;;;;;;5.17;3.08;;;;;;;13.03;66.95;100819.14;1657133;83;25880;-65
2021/05/20 06:51:59;;;;;;;6.35;4.03;;;;;;;13.16;66.73;100816.25;1690715;82;25798;-66
2021/05/20 06:54:29;;;;;;;6.70;2.95;;;;;;;13.23;66.26;100819.50;1668825;83;25799;-66
2021/05/20 06:57:19;;;;;;;11.53;3.37;;;;;;;13.23;65.83;100814.98;1696579;82;25566;-66
2021/05/20 07:02:19;;;;;;;9.55;2.70;;;;;;;13.28;65.00;100816.96;1681977;82;25721;-67
2021/05/20 07:04:49;;;;;;;4.15;2.20;;;;;;;13.44;64.51;100809.44;1677366;83;25725;-67
2021/05/20 07:07:18;;;;;;;6.05;2.80;;;;;;;13.58;63.43;100817.66;1686812;82;26037;-67
2021/05/20 07:09:49;;;;;;;2.42;1.40;;;;;;;13.64;63.38;100815.98;1676563;83;25800;-67
2021/05/20 07:12:23;;;;;;;5.50;1.72;;;;;;;13.71;62.81;100821.44;1695856;82;27854;-66
2021/05/20 07:14:54;;;;;;;5.53;2.33;;;;;;;13.73;61.33;100818.19;1698249;82;25680;-68
2021/05/20 07:17:26;;;;;;;7.12;1.50;;;;;;;13.72;60.66;100819.14;1691845;82;25867;-69
2021/05/20 07:19:56;;;;;;;3.02;2.27;;;;;;;13.77;59.73;100817.07;1670947;83;25761;-65
2021/05/20 07:22:27;;;;;;;2.93;2.03;;;;;;;13.83;60.22;100822.12;1664489;83;26103;-67
2021/05/20 07:25:00;;;;;;;;;;;;;;;13.93;59.37;100823.84;1699807;82;27402;-67
2021/05/20 07:27:28;;;;;;;4.17;1.95;;;;;;;13.94;59.46;100822.42;1693684;83;25923;-67
2021/05/20 07:29:58;;;;;;;12.28;2.37;;;;;;;14.04;59.02;100824.61;1670369;83;25697;-67
2021/05/20 07:32:29;;;;;;;5.40;2.08;;;;;;;14.14;58.84;100829.41;1696707;82;25649;-67
2021/05/20 07:35:01;;;;;;;5.58;2.87;;;;;;;14.26;59.03;100819.77;1686300;82;25692;-65
2021/05/20 07:37:30;;;;;;;9.55;2.85;;;;;;;14.38;58.40;100822.27;1684292;83;25739;-67
2021/05/20 07:40:00;;;;;;;5.87;2.65;;;;;;;14.41;58.27;100822.96;1708302;81;25826;-67
2021/05/20 07:42:28;;;;;;;3.42;2.05;;;;;;;14.44;58.27;100821.95;1667984;83;25762;-67
2021/05/20 07:45:00;;;;;;;7.58;2.85;;;;;;;14.40;57.60;100817.66;1668588;83;25847;-67
2021/05/20 07:47:32;;;;;;;5.10;2.20;;;;;;;14.34;57.62;100813.48;1683067;83;25729;-67
2021/05/20 07:50:04;;;;;;;5.30;2.25;;;;;;;14.34;57.78;100812.61;1672768;82;27603;-68
2021/05/20 07:52:34;;;;;;;3.67;2.02;;;;;;;14.36;57.61;100816.95;1699202;81;25827;-67
2021/05/20 07:55:06;;;;;;;4.08;2.50;;;;;;;14.34;57.38;100812.12;1688242;83;25853;-67
2021/05/20 07:57:37;;;;;;;10.68;2.45;;;;;;;14.39;57.21;100810.04;1655378;84;25767;-67
2021/05/20 08:00:12;;;;;;;4.12;2.15;;;;;;;14.37;57.00;100807.91;1669652;83;25811;-67
2021/05/20 08:02:49;;;;;;;4.03;2.22;;;;;;;14.40;56.69;100819.00;1668122;83;27284;-69
2021/05/20 08:05:28;;;;;;;5.33;2.42;;;;;;;14.38;56.70;100808.78;1703946;81;26116;-67
2021/05/20 08:08:09;;;;;;;6.62;2.98;;;;;;;14.35;56.15;100820.61;1680497;83;30410;-68
2021/05/20 08:13:06;;;;;;;4.90;2.95;;;;;;;14.45;56.39;100825.04;1671760;83;25644;-69
2021/05/20 08:15:36;;;;;;;4.30;3.08;;;;;;;14.48;56.36;100824.87;1695591;82;25819;-69
2021/05/20 08:18:06;;;;;;;3.40;2.60;;;;;;;14.57;56.44;100825.70;1676262;83;25804;-67
2021/05/20 08:20:36;;;;;;;6.97;3.15;;;;;;;14.55;56.35;100823.08;1679847;83;25696;-67
2021/05/20 08:23:07;;;;;;;3.77;2.52;;;;;;;14.61;56.40;100817.81;1702550;82;25714;-68
2021/05/20 08:25:36;;;;;;;4.53;2.75;;;;;;;14.71;56.39;100815.45;1701610;82;26007;-66
2021/05/20 08:28:05;;;;;;;4.83;2.77;;;;;;;14.78;56.41;100806.92;1693792;82;25703;-67
2021/05/20 08:30:37;;;;;;;4.62;2.80;;;;;;;14.94;55.73;100812.30;1706482;82;26119;-67
2021/05/20 08:33:06;;;;;;;;;;;;;;;15.07;56.19;100814.66;1703421;81;25773;-62
2021/05/20 08:35:36;;;;;;;5.42;3.05;;;;;;;15.21;55.48;100809.79;1678602;83;25837;-62
2021/05/20 08:38:05;;;;;;;4.15;2.67;;;;;;;15.33;55.78;100811.75;1704338;82;25587;-62
2021/05/20 08:40:35;;;;;;;5.53;2.72;;;;;;;15.42;55.19;100813.89;1702452;82;25880;-62
2021/05/20 08:43:04;;;;;;;9.40;3.13;;;;;;;15.38;55.27;100818.23;1680212;82;26161;-62
2021/05/20 08:45:35;;;;;;;7.53;2.45;;;;;;;15.35;55.13;100812.53;1662474;83;25687;-62
2021/05/20 08:48:06;;;;;;;8.75;2.60;;;;;;;15.31;55.03;100820.91;1649728;84;33328;-62
2021/05/20 08:50:36;;;;;;;;;;;;;;;15.21;54.04;100816.06;1627457;86;25722;-63
2021/05/20 08:53:06;;;;;;;9.30;2.67;;;;;;;15.02;53.76;100826.69;1630031;85;27191;-63
2021/05/20 08:55:37;;;;;;;5.25;2.35;;;;;;;14.87;54.09;100821.70;1654410;85;25814;-62
2021/05/20 08:58:13;;;;;;;4.00;2.80;;;;;;;14.85;53.85;100826.33;1621987;85;25839;-61
2021/05/20 09:00:42;;;;;;;3.72;2.70;;;;;;;14.76;53.84;100828.20;1635125;83;25609;-62
2021/05/20 09:03:14;;;;;;;3.42;2.62;;;;;;;14.60;54.13;100833.13;1649492;83;25699;-63
2021/05/20 09:05:44;;;;;;;7.37;2.50;;;;;;;14.42;54.22;100838.22;1667629;82;25754;-62
2021/05/20 09:08:16;;;;;;;6.37;2.72;;;;;;;14.18;54.64;100835.50;1644647;84;25791;-63
2021/05/20 09:10:47;;;;;;;;;;;;;;;14.08;55.06;100835.14;1668826;84;25809;-63
2021/05/20 09:13:18;;;;;;;5.12;3.15;;;;;;;14.06;55.29;100837.53;1644734;84;34275;-63
2021/05/20 09:15:52;;;;;;;9.43;3.10;;;;;;;14.08;55.51;100828.88;1646984;84;25620;-63
2021/05/20 09:18:28;;;;;;;6.87;3.12;;;;;;;14.15;55.60;100837.89;1635961;84;25974;-66
2021/05/20 09:20:59;;;;;;;5.47;2.75;;;;;;;14.19;55.76;100833.20;1669918;83;25903;-63
2021/05/20 09:23:31;;;;;;;7.03;3.27;;;;;;;14.19;55.74;100829.16;1639051;84;25719;-62
2021/05/20 09:26:12;;;;;;;3.25;2.45;;;;;;;14.20;55.94;100826.86;1610185;86;25696;-62
2021/05/20 09:28:46;;;;;;;5.23;3.30;;;;;;;14.27;55.90;100823.73;1634264;84;25711;-63
2021/05/20 09:31:37;;;;;;;7.08;3.30;;;;;;;14.32;55.68;100812.69;1638711;84;26250;-62
2021/05/20 09:34:17;;;;;;;8.35;3.70;;;;;;;14.41;56.01;100805.91;1609925;85;25703;-63
2021/05/20 09:36:49;;;;;;;11.08;4.45;;;;;;;14.58;56.17;100812.59;1626002;84;25839;-62
2021/05/20 09:39:18;;;;;;;7.90;3.55;;;;;;;14.82;56.15;100807.61;1641041;85;26092;-62
2021/05/20 09:41:47;;;;;;;5.55;4.17;;;;;;;14.98;55.93;100806.23;1651293;84;25613;-62
2021/05/20 09:44:32;;;;;;;8.10;3.67;;;;;;;15.11;54.98;100809.95;1632561;85;28175;-62
2021/05/20 09:47:07;;;;;;;8.75;3.75;;;;;;;15.20;55.22;100804.87;1616634;85;25821;-62
2021/05/20 09:50:00;;;;;;;4.87;3.12;;;;;;;15.23;55.23;100801.98;1637511;85;25925;-62
2021/05/20 09:52:30;;;;;;;9.10;2.95;;;;;;;15.45;55.15;100798.85;1646278;84;25787;-63
2021/05/20 09:55:00;;;;;;;4.03;2.57;;;;;;;15.54;54.70;100800.13;1630093;85;25852;-62
2021/05/20 09:57:34;;;;;;;;;;;;;;;15.58;54.28;100790.41;1642111;84;27532;-62
2021/05/20 10:00:15;;;;;;;10.30;2.67;;;;;;;15.61;53.75;100801.48;1626075;85;25808;-61
2021/05/20 10:02:46;;;;;;;4.92;2.65;;;;;;;15.62;53.53;100800.52;1654583;83;25785;-62
2021/05/20 10:05:37;;;;;;;3.98;2.15;;;;;;;15.73;52.85;100791.75;1661802;82;25771;-62
2021/05/20 10:08:20;;;;;;;5.20;2.30;;;;;;;15.83;52.95;100787.02;1682257;83;25811;-61
2021/05/20 10:10:53;;;;;;;7.17;2.72;;;;;;;15.82;52.10;100792.05;1630652;84;26456;-62
2021/05/20 10:13:26;;;;;;;7.75;2.87;;;;;;;15.68;51.33;100787.98;1638131;84;25838;-61
2021/05/20 10:15:58;;;;;;;3.35;2.52;;;;;;;15.63;51.58;100786.53;1640579;84;25878;-62
2021/05/20 10:18:28;;;;;;;3.35;2.42;;;;;;;15.56;51.75;100783.34;1636690;84;25755;-62
2021/05/20 10:21:02;;;;;;;5.62;3.17;;;;;;;15.47;51.77;100783.42;1706856;82;25906;-61
2021/05/20 10:23:34;;;;;;;14.68;3.00;;;;;;;15.44;51.72;100777.34;1708893;82;25826;-63
2021/05/20 10:26:06;;;;;;;7.40;2.87;;;;;;;15.47;51.71;100775.80;1692599;82;25570;-63
2021/05/20 10:28:38;;;;;;;11.55;3.52;;;;;;;15.49;51.67;100764.41;1694750;83;25780;-62
2021/05/20 10:31:14;;;;;;;9.18;3.25;;;;;;;15.57;51.86;100768.90;1690089;83;25723;-63
2021/05/20 10:33:45;;;;;;;7.78;3.45;;;;;;;15.74;51.61;100765.98;1666460;83;25791;-63
2021/05/20 10:36:33;;;;;;;8.05;3.27;;;;;;;15.81;50.91;100764.62;1675354;82;27728;-63
2021/05/20 10:39:22;;;;;;;8.33;2.90;;;;;;;15.89;51.19;100765.02;1685909;83;25729;-62
2021/05/20 10:41:53;;;;;;;6.83;3.05;;;;;;;16.19;51.22;100755.91;1685764;82;25677;-62
2021/05/20 10:44:23;;;;;;;4.10;2.67;;;;;;;16.45;50.91;100752.36;1664800;81;25833;-62
2021/05/20 10:47:07;;;;;;;10.35;3.62;;;;;;;16.62;51.44;100752.59;1683512;82;25873;-60
2021/05/20 10:49:53;;;;;;;10.05;4.12;;;;;;;16.67;50.79;100757.73;1650220;84;25803;-61
2021/05/20 10:52:42;;;;;;;5.53;3.20;;;;;;;16.55;50.71;100760.25;1667049;84;25839;-62
2021/05/20 10:55:14;;;;;;;6.28;3.25;;;;;;;16.43;50.65;100752.95;1645543;84;25924;-62
2021/05/20 10:58:03;;;;;;;5.35;3.70;;;;;;;16.38;50.60;100754.22;1646056;84;25831;-62
2021/05/20 11:00:45;;;;;;;10.72;3.25;;;;;;;16.37;50.41;100755.19;1664923;83;25776;-62
2021/05/20 11:03:13;;;;;;;13.30;4.70;;;;;;;16.23;50.21;100754.25;1685506;82;27982;-62
2021/05/20 11:05:52;;;;;;;4.45;3.20;;;;;;;16.16;50.26;100746.15;1704158;81;26026;-62
2021/05/20 11:08:49;;;;;;;4.00;3.50;;;;;;;16.12;50.27;100745.97;1707563;82;25863;-61
2021/05/20 11:11:43;;;;;;;5.72;3.83;;;;;;;16.05;50.22;100763.55;1702984;81;25634;-61
2021/05/20 11:14:33;;;;;;;6.58;3.37;;;;;;;16.00;50.02;100755.34;1645349;84;25651;-60
2021/05/20 11:17:32;;;;;;;5.10;3.33;;;;;;;15.92;50.35;100761.24;1618207;85;27272;-61
2021/05/20 11:20:27;;;;;;;10.28;3.50;;;;;;;15.90;50.48;100762.70;1617996;85;25727;-61
2021/05/20 11:23:17;;;;;;;9.95;3.75;;;;;;;15.90;50.67;100771.28;1617502;85;25980;-61
2021/05/20 11:25:46;;;;;;;6.00;2.90;;;;;;;15.84;50.65;100767.14;1614805;86;25681;-61
2021/05/20 11:28:19;;;;;;;10.50;3.47;;;;;;;15.87;50.58;100758.83;1636680;85;25767;-61
2021/05/20 11:30:59;;;;;;;13.30;2.17;;;;;;;15.95;50.17;100774.56;1635315;83;28041;-61
2021/05/20 11:33:33;;;;;;;5.28;2.00;;;;;;;15.73;50.08;100770.13;1664320;82;25666;-60
2021/05/20 11:38:34;;;;;;;4.37;1.90;;;;;;;15.38;50.73;100766.91;1688799;82;25734;-62
2021/05/20 11:41:19;;;;;;;7.83;1.67;;;;;;;15.36;51.29;100771.53;1696512;82;25960;-61
2021/05/20 11:44:11;;;;;;;4.58;1.80;;;;;;;15.47;51.01;100768.56;1671922;82;27362;-61
2021/05/20 11:46:54;;;;;;;8.10;1.62;;;;;;;15.47;50.69;100775.80;1699434;81;25645;-62
2021/05/20 11:49:23;;;;;;;6.30;1.60;;;;;;;15.36;50.00;100772.41;1668896;84;25720;-61
2021/05/20 11:52:08;;;;;;;2.50;1.52;;;;;;;15.23;50.48;100772.28;1647391;85;25874;-61
2021/05/20 11:54:45;;;;;;;2.27;1.80;;;;;;;15.27;50.50;100772.96;1675593;83;26283;-61
2021/05/20 11:57:20;;;;;;;8.33;2.10;;;;;;;15.31;50.58;100775.00;1692842;81;27369;-61
2021/05/20 11:59:56;;;;;;;4.55;2.17;;;;;;;15.36;50.72;100779.64;1703449;81;26121;-60
2021/05/20 12:02:36;;;;;;;5.85;2.42;;;;;;;15.37;51.04;100782.25;1703677;82;25759;-61